• Join FlightAware (Why Join?)
  • Login
  • US Flag 
01:51PM EDT


 

Airport Tracker/Info


-or-


 

Live Flight TrackerFlight Track Log ✈ ASA558 ✈ 25-Apr-2013 ✈ KSEA - KPSP

Flight Track Log - Related Links

Times and Time Zones

All times are in EDT time to prevent confusion due to time zone crossing. See the ASA558 flight status page for this flight to view local times or setup timezone preferences in your user account.

Time Position Orientation Groundspeed Altitude Reporting Facility
EDT Latitude Longitude Course Direction KTS MPH feet Rate Location/Type
04:09PM 47.4700 -122.3075 359° North 169 194 1,500  Level Seattle Center
04:10PM 47.5281 -122.3083 359° North 228 262 3,700 2,520 Climbing Seattle Center
04:11PM 47.6036 -122.2964 North 259 298 6,800 2,100 Climbing Seattle Center
04:12PM 47.6083 -122.1864 86° East 301 346 8,100 900 Climbing Seattle Center
04:13PM 47.5650 -122.0772 120° Southeast 307 353 8,700 840 Climbing Seattle Center
04:14PM 47.4981 -122.0381 158° South 315 362 9,900 1,560 Climbing Seattle Center
04:15PM 47.4011 -122.0275 176° South 356 410 11,900 2,640 Climbing Seattle Center
04:16PM 47.2736 -122.0228 179° South 384 442 15,300 2,940 Climbing Seattle Center
04:17PM 47.1656 -122.0103 176° South 393 452 17,900 2,160 Climbing Seattle Center
04:18PM 47.0550 -121.9681 165° South 413 475 19,700 1,860 Climbing Seattle Center
04:20PM 46.9392 -121.9289 167° South 427 491 21,700 1,860 Climbing Seattle Center
04:21PM 46.8203 -121.8856 166° South 441 507 23,600 1,620 Climbing Seattle Center
04:22PM 46.6986 -121.8433 167° South 450 518 25,100 1,620 Climbing Seattle Center
04:23PM 46.5736 -121.7986 166° South 462 532 27,000 1,560 Climbing Seattle Center
04:24PM 46.4481 -121.7531 166° South 467 537 28,300 1,380 Climbing Seattle Center
04:25PM 46.2928 -121.7061 168° South 478 550 29,900 1,440 Climbing Seattle Center
04:26PM 46.1611 -121.6753 171° South 480 552 31,300 1,320 Climbing Seattle Center
04:27PM 46.0336 -121.6461 171° South 469 540 32,700 780 Climbing Seattle Center
04:28PM 45.9003 -121.6083 169° South 484 557 33,000 60 Climbing Seattle Center
04:29PM 45.7700 -121.5722 169° South 481 554 32,900  Descending Seattle Center
04:30PM 45.6419 -121.5408 170° South 466 536 33,000  Climbing Seattle Center
04:31PM 45.5119 -121.5083 170° South 471 542 33,000  Level Seattle Center
04:32PM 45.3875 -121.4758 170° South 470 541 33,000  Level Seattle Center
04:33PM 45.2583 -121.4400 169° South 472 543 33,000  Level Seattle Center
04:34PM 45.1292 -121.4081 170° South 471 542 33,000  Level Seattle Center
04:35PM 44.9739 -121.3683 170° South 472 543 33,000  Level Seattle Center
04:36PM 44.8450 -121.3369 170° South 471 542 33,000  Level Seattle Center
04:37PM 44.7150 -121.3044 170° South 472 543 33,000  Level Seattle Center
04:38PM 44.5844 -121.2714 170° South 476 548 33,000  Level Seattle Center
04:39PM 44.4525 -121.2392 170° South 480 552 33,000  Level Seattle Center
04:40PM 44.3228 -121.2081 170° South 479 551 33,000  Level Seattle Center
04:41PM 44.1833 -121.1717 169° South 482 555 33,000  Level Seattle Center
04:42PM 44.0408 -121.1389 171° South 483 556 33,000  Level Seattle Center
04:43PM 43.9097 -121.1067 170° South 478 550 33,000  Level Seattle Center
04:44PM 43.7789 -121.0742 170° South 477 549 33,000  Level Seattle Center
04:45PM 43.6475 -121.0431 170° South 479 551 33,000  Level Seattle Center
04:46PM 43.5114 -121.0122 171° South 479 551 33,000  Level Seattle Center
04:47PM 43.3792 -120.9808 170° South 480 552 33,000  Level Seattle Center
04:48PM 43.2475 -120.9492 170° South 478 550 33,000  Level Seattle Center
04:49PM 43.1158 -120.9169 170° South 480 552 33,000  Level Seattle Center
04:50PM 42.9842 -120.8853 170° South 479 551 33,000  Level Seattle Center
04:51PM 42.8536 -120.8533 170° South 477 549 33,000  Level Seattle Center
04:52PM 42.7208 -120.8203 170° South 482 555 33,000  Level Seattle Center
04:53PM 42.5892 -120.7900 170° South 479 551 33,000  Level Seattle Center
04:54PM 42.4569 -120.7569 170° South 480 552 33,000  Level Seattle Center
04:55PM 42.3231 -120.7253 170° South 484 557 33,000  Level Seattle Center
04:56PM 42.1906 -120.6939 170° South 480 552 33,000  Level Seattle Center
04:57PM 42.0572 -120.6619 170° South 482 555 33,000  Level Seattle Center
04:58PM 41.8989 -120.6236 170° South 481 554 33,000  Level Seattle Center
04:59PM 41.7675 -120.5939 170° South 479 551 33,000  Level Seattle Center
05:01PM 41.6217 -120.5567 169° South  Level FlightAware Approximate
05:01PM 41.5564 -120.5433 169° South 476 548 33,000  Level Oakland Center
05:01PM 41.5044 -120.5314 170° South 478 550 33,000  Level Seattle Center
05:02PM 41.3739 -120.5003 170° South 476 548 33,000  Level Seattle Center
05:03PM 41.2439 -120.4706 170° South 474 545 33,000  Level Seattle Center
05:04PM 41.1131 -120.4394 170° South 475 547 33,000  Level Seattle Center
05:05PM 40.9811 -120.4103 171° South 478 550 33,000  Level Seattle Center
05:06PM 40.8525 -120.3694 166° South 477 549 33,000  Level Seattle Center
05:07PM 40.7236 -120.3275 166° South 476 548 33,000  Level Seattle Center
05:08PM 40.5928 -120.2889 167° South 480 552 33,000  Level Seattle Center
05:09PM 40.4994 -120.2608 167° South 480 552 33,000  Level Oakland Center
05:10PM 40.3697 -120.2206 167° South 479 551 33,000  Level Oakland Center
05:11PM 40.2411 -120.1811 167° South 477 549 33,000  Level Oakland Center
05:12PM 40.1106 -120.1425 167° South 479 551 33,000  Level Oakland Center
05:13PM 39.9542 -120.0942 167° South 482 555 33,000  Level Oakland Center
05:14PM 39.8239 -120.0572 168° South 481 554 33,000  Level Oakland Center
05:15PM 39.6983 -120.0161 166° South 471 542 33,000  Level Oakland Center
05:16PM 39.5700 -119.9794 168° South 471 542 33,000  Level Oakland Center
05:17PM 39.4419 -119.9406 167° South 474 545 33,000  Level Oakland Center
05:18PM 39.3128 -119.9022 167° South 477 549 33,000  Level Oakland Center
05:19PM 39.1842 -119.8650 167° South 478 550 33,000  Level Oakland Center
05:20PM 39.0564 -119.8281 167° South 473 544 33,000  Level Oakland Center
05:21PM 38.9003 -119.7819 167° South 479 551 33,000  Level Oakland Center
05:22PM 38.7706 -119.7428 167° South 480 552 33,000  Level Oakland Center
05:23PM 38.6411 -119.7056 167° South 478 550 33,000  Level Oakland Center
05:24PM 38.5122 -119.6672 167° South 477 549 33,000  Level Oakland Center
05:25PM 38.3686 -119.6269 168° South 474 545 33,000  Level Oakland Center
05:26PM 38.2386 -119.5900 167° South 476 548 33,000  Level Oakland Center
05:27PM 38.1100 -119.5517 167° South 473 544 33,000  Level Oakland Center
05:28PM 37.9842 -119.5147 167° South 466 536 33,000  Level Oakland Center
05:30PM 37.8503 -119.4797 168° South 480 552 33,000  Level Oakland Center
05:31PM 37.7186 -119.4453 168° South 482 555 33,000  Level Oakland Center
05:32PM 37.5947 -119.4108 168° South 472 543 33,000  Level Oakland Center
05:33PM 37.4661 -119.3756 168° South 472 543 33,000  Level Oakland Center
05:34PM 37.3119 -119.3333 168° South 471 542 33,000  Level Oakland Center
05:35PM 37.1839 -119.2958 167° South 469 540 33,000  Level Oakland Center
05:36PM 37.0578 -119.2600 167° South 466 536 33,000  Level Oakland Center
05:37PM 36.9328 -119.2253 167° South 461 531 33,000  Level Oakland Center
05:38PM 36.8067 -119.1903 167° South 462 532 33,000  Level Oakland Center
05:39PM 36.6828 -119.1567 168° South 458 527 33,000  Level Oakland Center
05:40PM 36.5597 -119.1228 168° South 454 522 33,000  Level Oakland Center
05:41PM 36.4356 -119.0878 167° South 456 525 33,000  Level Oakland Center
05:42PM 36.2881 -119.0475 168° South 454 522 33,000  Level Oakland Center
05:43PM 36.1681 -119.0181 169° South 440 506 33,000  Level Oakland Center
05:44PM 36.0475 -118.9783 165° South 443 510 33,000  Level Oakland Center
05:45PM 35.9278 -118.9356 164° South 444 511 33,000  Level Oakland Center
05:46PM 35.8075 -118.8931 164° South 448 516 33,000  Level Oakland Center
05:47PM 35.6886 -118.8519 164° South 444 511 33,000  Level Oakland Center
05:48PM 35.6153 -118.8258 164° South 443 510 33,000  Level Los Angeles Center
05:49PM 35.4950 -118.7850 165° South 445 512 33,000  Level Los Angeles Center
05:50PM 35.3758 -118.7431 164° South 445 512 33,000  Level Los Angeles Center
05:51PM 35.2572 -118.7014 164° South 443 510 33,000 -300 Level Los Angeles Center
05:52PM 35.1156 -118.6522 164° South 440 506 32,500 -780 Descending Los Angeles Center
05:53PM 35.0017 -118.5969 158° South 448 516 31,500 -1,560 Descending Los Angeles Center
05:54PM 34.9161 -118.4758 131° Southeast 455 524 29,300 -2,280 Descending Los Angeles Center
05:55PM 34.8364 -118.3589 130° Southeast 453 521 26,800 -2,400 Descending Los Angeles Center
05:56PM 34.7581 -118.2481 131° Southeast 438 504 24,400 -1,620 Descending Los Angeles Center
05:57PM 34.6822 -118.1386 130° Southeast 428 493 23,500 -1,020 Descending Los Angeles Center
05:58PM 34.6125 -118.0267 127° Southeast 418 481 22,300 -1,440 Descending Los Angeles Center
05:59PM 34.5492 -117.8844 118° Southeast 406 467 20,600 -1,560 Descending Los Angeles Center
06:00PM 34.4964 -117.7714 120° Southeast 391 450 19,100 -1,140 Descending Los Angeles Center
06:01PM 34.4447 -117.6589 119° Southeast 386 444 18,300 -720 Descending Los Angeles Center
06:02PM 34.3936 -117.5481 119° Southeast 380 437 17,700 -660 Descending Los Angeles Center
06:03PM 34.3361 -117.4197 118° Southeast 378 435 17,000 -360 Descending Los Angeles Center
06:04PM 34.2847 -117.3097 119° Southeast 373 429 17,000 -480 Level Los Angeles Center
06:05PM 34.2331 -117.2011 120° Southeast 373 429 16,100 -900 Descending Los Angeles Center
06:06PM 34.1808 -117.0900 120° Southeast 366 421 15,200 -840 Descending Los Angeles Center
06:07PM 34.1325 -116.9850 119° Southeast 359 413 14,400 -660 Descending Los Angeles Center
06:08PM 34.1000 -116.9167 120° Southeast 354 407 14,200 -300 Descending Southern California TRACON
06:08PM 34.0797 -116.8697 118° Southeast 350 403 14,100 -120 Descending Los Angeles Center
06:09PM 34.0400 -116.7853 120° Southeast 293 337 14,100 -840 Level Los Angeles Center
06:10PM 34.0006 -116.7050 121° Southeast 277 319 12,400 -1,620 Descending Los Angeles Center
06:11PM 33.9608 -116.6200 119° Southeast 288 331 10,800 -1,140 Descending Los Angeles Center
06:12PM 33.9236 -116.5436 120° Southeast 272 313 10,100 -1,140 Descending Los Angeles Center
06:13PM 33.8922 -116.4742 119° Southeast 240 276 8,500 -1,800 Descending Los Angeles Center
06:16PM 33.8167 -116.3500 126° Southeast 183 211 4,000 -1,680 Descending Southern California TRACON
06:17PM 33.7833 -116.4000 231° Southwest 173 199 2,800 -1,260 Descending Southern California TRACON
06:18PM 33.7833 -116.4500 270° West 164 189 1,700 -1,140 Descending Southern California TRACON
06:19PM 33.8167 -116.4833 320° Northwest 153 176 700 -1,020 Descending Southern California TRACON
06:21PM 33.8167 -116.5000 270° West  Level FlightAware Approximate
06:28PM 33.8297 -116.5067 270° West  Level Estimated